Time;durP1;ratioP1;P1;durP2;ratioP2;P2;SDS_P1;SDS_P2;PMS_P1;PMS_P2;Temp;Humidity;BMP_temperature;BMP_pressure;BME280_temperature;BME280_humidity;BME280_pressure;Samples;Min_cycle;Max_cycle;Signal;HPM_P1;HPM_P2
2023/09/16 00:04:29;;;;;;;6.38;4.53;;;;;;;;;;10368900;28;20049;-47
2023/09/16 00:09:30;;;;;;;5.50;4.80;;;;;;;;;;10368846;28;20026;-47
2023/09/16 00:14:30;;;;;;;11.50;4.80;;;;;;;;;;10352341;28;20041;-47
2023/09/16 00:19:31;;;;;;;11.90;4.78;;;;;;;;;;10356889;28;20034;-47
2023/09/16 00:24:31;;;;;;;5.85;4.68;;;;;;;;;;10368394;28;20036;-47
2023/09/16 00:29:32;;;;;;;7.07;4.60;;;;;;;;;;10355325;28;20423;-48
2023/09/16 00:34:33;;;;;;;4.90;4.40;;;;;;;;;;10357235;28;20374;-52
2023/09/16 00:39:33;;;;;;;5.30;4.40;;;;;;;;;;10353466;28;20258;-48
2023/09/16 00:44:34;;;;;;;6.95;4.78;;;;;;;;;;10358762;28;20053;-47
2023/09/16 00:49:35;;;;;;;6.53;4.15;;;;;;;;;;10352373;28;20034;-47
2023/09/16 00:54:35;;;;;;;11.18;4.50;;;;;;;;;;10368156;28;20041;-48
2023/09/16 00:59:36;;;;;;;5.70;4.35;;;;;;;;;;10366058;28;20032;-50
2023/09/16 01:04:39;;;;;;;7.78;4.57;;;;;;;;;;10365944;28;20508;-47
2023/09/16 01:09:41;;;;;;;10.02;4.45;;;;;;;;;;10354827;28;20034;-48
2023/09/16 01:14:42;;;;;;;5.70;4.38;;;;;;;;;;10361113;28;20083;-49
2023/09/16 01:19:59;;;;;;;4.75;4.28;;;;;;;;;;10354130;28;20026;-47
2023/09/16 01:25:06;;;;;;;5.70;4.20;;;;;;;;;;10353352;28;20034;-48
2023/09/16 01:30:08;;;;;;;7.18;3.78;;;;;;;;;;10366075;28;20026;-48
2023/09/16 01:35:14;;;;;;;9.48;4.13;;;;;;;;;;10355417;28;20084;-47
2023/09/16 01:40:15;;;;;;;7.43;3.70;;;;;;;;;;10364855;28;20030;-48
2023/09/16 01:45:16;;;;;;;4.13;3.60;;;;;;;;;;10365078;28;20144;-47
2023/09/16 01:50:16;;;;;;;5.75;3.95;;;;;;;;;;10364560;28;20026;-48
2023/09/16 01:55:17;;;;;;;4.63;4.13;;;;;;;;;;10352725;28;20025;-47
2023/09/16 02:00:17;;;;;;;6.65;4.28;;;;;;;;;;10364133;28;20033;-48
2023/09/16 02:05:19;;;;;;;6.05;4.00;;;;;;;;;;10330657;28;20014;-47
2023/09/16 02:10:19;;;;;;;7.47;3.75;;;;;;;;;;10346871;28;20042;-47
2023/09/16 02:15:20;;;;;;;5.90;3.80;;;;;;;;;;10353246;28;20030;-48
2023/09/16 02:20:20;;;;;;;4.00;3.60;;;;;;;;;;10351103;28;20197;-50
2023/09/16 02:25:21;;;;;;;8.40;3.58;;;;;;;;;;10365435;28;20018;-47
2023/09/16 02:30:22;;;;;;;3.85;3.30;;;;;;;;;;10363429;28;20034;-47
2023/09/16 02:35:23;;;;;;;4.93;3.95;;;;;;;;;;10355197;28;20027;-47
2023/09/16 02:40:25;;;;;;;4.05;3.03;;;;;;;;;;10361067;28;20029;-47
2023/09/16 02:45:25;;;;;;;5.85;3.92;;;;;;;;;;10371501;28;20042;-48
2023/09/16 02:50:26;;;;;;;8.13;3.88;;;;;;;;;;10370844;28;20107;-47
2023/09/16 02:55:27;;;;;;;4.47;3.38;;;;;;;;;;10371566;28;20041;-48
2023/09/16 03:00:27;;;;;;;5.68;3.05;;;;;;;;;;10358308;28;20026;-47
2023/09/16 03:05:29;;;;;;;3.80;3.47;;;;;;;;;;10370119;28;20048;-49
2023/09/16 03:10:33;;;;;;;6.68;4.10;;;;;;;;;;10358584;28;20482;-47
2023/09/16 03:15:46;;;;;;;7.40;3.50;;;;;;;;;;10369936;28;20638;-48
2023/09/16 03:20:47;;;;;;;6.72;3.58;;;;;;;;;;10370836;28;20018;-49
2023/09/16 03:25:48;;;;;;;6.05;3.53;;;;;;;;;;10370048;28;20038;-48
2023/09/16 03:30:48;;;;;;;7.78;3.70;;;;;;;;;;10356643;28;20382;-47
2023/09/16 03:35:49;;;;;;;5.90;3.92;;;;;;;;;;10369912;28;20220;-47
2023/09/16 03:40:50;;;;;;;8.02;3.97;;;;;;;;;;10370469;28;20170;-47
2023/09/16 03:45:51;;;;;;;4.05;3.60;;;;;;;;;;10370348;28;20066;-49
2023/09/16 03:50:51;;;;;;;3.67;3.38;;;;;;;;;;10369304;28;20037;-47
2023/09/16 03:55:52;;;;;;;4.40;3.53;;;;;;;;;;10368443;28;20022;-47
2023/09/16 04:00:53;;;;;;;4.60;3.38;;;;;;;;;;10368632;28;20026;-47
2023/09/16 04:05:57;;;;;;;5.68;4.57;;;;;;;;;;10369327;28;20492;-48
2023/09/16 04:10:58;;;;;;;5.38;3.13;;;;;;;;;;10355244;28;20025;-48
2023/09/16 04:15:58;;;;;;;3.53;3.22;;;;;;;;;;10369387;28;20018;-48
2023/09/16 04:21:02;;;;;;;8.75;3.80;;;;;;;;;;10357981;28;20018;-48
2023/09/16 04:26:05;;;;;;;8.00;4.43;;;;;;;;;;10368250;28;20104;-47
2023/09/16 04:31:08;;;;;;;6.43;3.78;;;;;;;;;;10361128;28;20026;-47
2023/09/16 04:36:09;;;;;;;5.80;3.85;;;;;;;;;;10362394;28;20060;-47
2023/09/16 04:41:09;;;;;;;9.60;4.57;;;;;;;;;;10355761;28;20066;-50
2023/09/16 04:46:10;;;;;;;9.80;4.00;;;;;;;;;;10366903;28;20045;-49
2023/09/16 04:51:11;;;;;;;7.88;4.05;;;;;;;;;;10366226;28;20185;-48
2023/09/16 04:56:11;;;;;;;6.00;4.32;;;;;;;;;;10354646;28;20034;-48
2023/09/16 05:01:13;;;;;;;5.53;3.63;;;;;;;;;;10342000;28;20014;-48
2023/09/16 05:06:14;;;;;;;11.43;4.43;;;;;;;;;;10363953;28;20414;-47
2023/09/16 05:11:15;;;;;;;8.75;3.80;;;;;;;;;;10353288;28;20033;-47
2023/09/16 05:16:16;;;;;;;9.25;3.70;;;;;;;;;;10366073;28;20037;-47
2023/09/16 05:21:16;;;;;;;9.13;3.72;;;;;;;;;;10358974;28;20022;-52
2023/09/16 05:26:17;;;;;;;4.55;3.38;;;;;;;;;;10361956;28;20029;-49
2023/09/16 05:31:18;;;;;;;4.38;3.47;;;;;;;;;;10364316;28;20032;-48
2023/09/16 05:36:20;;;;;;;5.15;3.33;;;;;;;;;;10349695;28;20030;-48
2023/09/16 05:41:20;;;;;;;9.63;3.35;;;;;;;;;;10347229;28;20030;-48
2023/09/16 05:46:23;;;;;;;4.38;3.40;;;;;;;;;;10350878;28;20045;-50
2023/09/16 05:51:23;;;;;;;8.75;3.35;;;;;;;;;;10350737;28;20061;-52
2023/09/16 05:56:24;;;;;;;8.52;3.08;;;;;;;;;;10351643;28;20109;-48
2023/09/16 06:01:25;;;;;;;5.82;4.13;;;;;;;;;;10358793;28;20022;-49
2023/09/16 06:06:26;;;;;;;5.40;3.72;;;;;;;;;;10346306;28;20060;-48
2023/09/16 06:11:28;;;;;;;9.18;3.97;;;;;;;;;;10354507;28;20056;-51
2023/09/16 06:16:29;;;;;;;7.90;3.33;;;;;;;;;;10362260;28;20033;-47
2023/09/16 06:21:30;;;;;;;6.22;3.60;;;;;;;;;;10343601;28;20038;-47
2023/09/16 06:26:31;;;;;;;9.02;3.55;;;;;;;;;;10342062;28;20374;-47
2023/09/16 06:31:31;;;;;;;9.23;3.80;;;;;;;;;;10347493;28;20038;-48
2023/09/16 06:36:32;;;;;;;4.38;3.55;;;;;;;;;;10337342;28;20029;-47
2023/09/16 06:41:33;;;;;;;4.68;3.65;;;;;;;;;;10334194;28;20033;-52
2023/09/16 06:46:34;;;;;;;7.53;3.17;;;;;;;;;;10339686;28;20133;-53
2023/09/16 06:51:34;;;;;;;7.50;2.97;;;;;;;;;;10336886;28;20466;-58
2023/09/16 06:56:35;;;;;;;6.70;3.60;;;;;;;;;;10345705;28;20168;-47
2023/09/16 07:01:36;;;;;;;6.18;3.83;;;;;;;;;;10362668;28;20026;-56
2023/09/16 07:06:37;;;;;;;9.15;3.58;;;;;;;;;;10353025;28;20029;-56
2023/09/16 07:11:37;;;;;;;8.45;3.70;;;;;;;;;;10343555;28;20034;-47
2023/09/16 07:16:40;;;;;;;7.32;4.05;;;;;;;;;;10345447;28;20021;-48
2023/09/16 07:21:40;;;;;;;6.18;3.55;;;;;;;;;;10332249;28;20045;-47
2023/09/16 07:26:43;;;;;;;6.18;3.50;;;;;;;;;;10339406;28;20027;-53
2023/09/16 07:31:44;;;;;;;12.07;3.60;;;;;;;;;;10360620;28;20065;-49
2023/09/16 07:36:46;;;;;;;3.72;3.05;;;;;;;;;;10364539;28;20542;-58
2023/09/16 07:41:46;;;;;;;11.10;3.28;;;;;;;;;;10363801;28;20465;-46
2023/09/16 07:46:48;;;;;;;5.20;3.35;;;;;;;;;;10365280;28;20033;-49
2023/09/16 07:51:49;;;;;;;8.55;3.40;;;;;;;;;;10363274;28;20026;-52
2023/09/16 07:56:50;;;;;;;9.20;3.28;;;;;;;;;;10362405;28;20724;-48
2023/09/16 08:01:50;;;;;;;10.88;3.58;;;;;;;;;;10362665;28;20030;-48
2023/09/16 08:06:52;;;;;;;5.43;3.28;;;;;;;;;;10362364;28;20026;-50
2023/09/16 08:11:53;;;;;;;11.30;3.47;;;;;;;;;;10345670;28;20034;-48
2023/09/16 08:16:57;;;;;;;8.57;3.55;;;;;;;;;;10368957;28;20049;-47
2023/09/16 08:21:57;;;;;;;7.93;3.45;;;;;;;;;;10369674;28;20022;-47
2023/09/16 08:26:58;;;;;;;5.55;2.75;;;;;;;;;;10369032;28;20029;-62
2023/09/16 08:31:59;;;;;;;4.65;2.72;;;;;;;;;;10367846;28;20033;-48
2023/09/16 08:36:59;;;;;;;4.78;3.28;;;;;;;;;;10365898;28;20022;-62
2023/09/16 08:42:06;;;;;;;3.53;2.78;;;;;;;;;;10357261;28;20050;-62
2023/09/16 08:47:15;;;;;;;13.50;3.47;;;;;;;;;;10365144;28;20042;-63
2023/09/16 08:52:17;;;;;;;4.22;2.90;;;;;;;;;;10366719;28;20022;-59
2023/09/16 08:57:18;;;;;;;6.47;2.90;;;;;;;;;;10357723;28;20113;-59
2023/09/16 09:02:18;;;;;;;7.28;2.58;;;;;;;;;;10362632;28;20025;-59
2023/09/16 09:07:20;;;;;;;7.53;3.15;;;;;;;;;;10365769;28;20370;-60
2023/09/16 09:12:21;;;;;;;6.70;3.25;;;;;;;;;;10342123;28;20469;-58
2023/09/16 09:17:23;;;;;;;12.55;3.10;;;;;;;;;;10338288;28;20101;-61
2023/09/16 09:22:24;;;;;;;15.60;3.33;;;;;;;;;;10356186;28;20034;-62
2023/09/16 09:27:26;;;;;;;6.65;3.67;;;;;;;;;;10364285;28;20489;-58
2023/09/16 09:32:31;;;;;;;9.88;3.10;;;;;;;;;;10362899;28;20034;-49
2023/09/16 09:37:32;;;;;;;6.22;3.15;;;;;;;;;;10363599;28;20477;-46
2023/09/16 09:42:32;;;;;;;8.35;3.45;;;;;;;;;;10363404;28;20022;-47
2023/09/16 09:47:34;;;;;;;8.15;3.42;;;;;;;;;;10352520;28;20046;-46
2023/09/16 09:52:34;;;;;;;6.70;3.38;;;;;;;;;;10362145;28;20038;-46
2023/09/16 09:57:35;;;;;;;5.53;3.08;;;;;;;;;;10362129;28;20030;-46
2023/09/16 10:02:40;;;;;;;4.78;2.92;;;;;;;;;;10362247;28;20033;-46
2023/09/16 10:07:42;;;;;;;5.07;3.50;;;;;;;;;;10362376;28;20030;-47
2023/09/16 10:12:44;;;;;;;5.03;3.20;;;;;;;;;;10338879;28;20488;-48
2023/09/16 10:17:45;;;;;;;4.57;3.10;;;;;;;;;;10358396;28;20019;-47
2023/09/16 10:22:46;;;;;;;5.00;2.72;;;;;;;;;;10358647;28;20030;-47
2023/09/16 10:28:01;;;;;;;4.15;3.28;;;;;;;;;;10363377;28;20021;-47
2023/09/16 10:33:08;;;;;;;5.72;3.00;;;;;;;;;;10356772;28;20034;-46
2023/09/16 10:38:10;;;;;;;3.75;3.03;;;;;;;;;;10344330;28;20108;-47
2023/09/16 10:43:14;;;;;;;3.38;2.90;;;;;;;;;;10345218;28;20038;-46
2023/09/16 10:48:14;;;;;;;3.50;3.20;;;;;;;;;;10339924;28;20043;-46
2023/09/16 10:53:21;;;;;;;4.03;3.10;;;;;;;;;;10329062;28;20026;-47
2023/09/16 10:58:32;;;;;;;5.73;3.43;;;;;;;;;;10329431;28;20026;-47
2023/09/16 11:03:37;;;;;;;3.88;3.20;;;;;;;;;;10345454;28;20026;-48
2023/09/16 11:08:38;;;;;;;4.35;3.20;;;;;;;;;;10336993;28;20430;-47
2023/09/16 11:13:39;;;;;;;3.20;3.00;;;;;;;;;;10358973;28;20026;-47
2023/09/16 11:18:42;;;;;;;3.40;3.10;;;;;;;;;;10367407;28;20196;-46
2023/09/16 11:23:47;;;;;;;5.07;3.47;;;;;;;;;;10370673;28;20034;-47
2023/09/16 11:28:51;;;;;;;6.28;3.50;;;;;;;;;;10371201;28;20088;-47
2023/09/16 11:33:59;;;;;;;9.07;3.60;;;;;;;;;;10358595;28;20118;-48
2023/09/16 11:39:05;;;;;;;;;;;;;;;;;;10360660;28;20045;-46
2023/09/16 11:44:07;;;;;;;3.88;3.25;;;;;;;;;;10369699;28;19913;-47
2023/09/16 11:49:07;;;;;;;6.47;3.50;;;;;;;;;;10384715;28;20636;-47
2023/09/16 11:54:08;;;;;;;4.15;3.05;;;;;;;;;;10367891;28;20343;-47
2023/09/16 11:59:10;;;;;;;7.05;3.75;;;;;;;;;;10355201;28;20030;-47
2023/09/16 12:04:15;;;;;;;6.95;3.60;;;;;;;;;;10368728;28;20030;-48
2023/09/16 12:09:18;;;;;;;4.32;3.15;;;;;;;;;;10361218;28;20022;-48
2023/09/16 12:14:21;;;;;;;5.50;3.45;;;;;;;;;;10355158;28;20080;-47
2023/09/16 12:19:22;;;;;;;5.28;3.63;;;;;;;;;;10343439;28;20034;-48
2023/09/16 12:24:24;;;;;;;6.60;3.30;;;;;;;;;;10350630;28;20026;-47
2023/09/16 12:29:26;;;;;;;9.93;3.38;;;;;;;;;;10342582;28;20498;-47
2023/09/16 12:34:27;;;;;;;4.50;3.20;;;;;;;;;;10345106;28;20109;-46
2023/09/16 12:39:28;;;;;;;4.53;3.33;;;;;;;;;;10344550;28;20029;-48
2023/09/16 12:44:31;;;;;;;3.70;3.20;;;;;;;;;;10338339;28;20077;-45
2023/09/16 12:49:32;;;;;;;7.82;3.45;;;;;;;;;;10345063;28;20022;-47
2023/09/16 12:54:32;;;;;;;4.72;3.30;;;;;;;;;;10349055;28;20481;-48
2023/09/16 12:59:33;;;;;;;3.55;3.22;;;;;;;;;;10337645;28;20027;-47
2023/09/16 13:04:33;;;;;;;5.30;3.63;;;;;;;;;;10345269;28;20035;-48
2023/09/16 13:09:35;;;;;;;7.38;3.67;;;;;;;;;;10330504;28;20029;-47
2023/09/16 13:14:38;;;;;;;6.03;3.55;;;;;;;;;;10362853;28;20480;-47
2023/09/16 13:19:40;;;;;;;4.43;3.40;;;;;;;;;;10345117;28;20100;-46
2023/09/16 13:24:45;;;;;;;4.28;3.25;;;;;;;;;;10341330;28;20130;-47
2023/09/16 13:29:46;;;;;;;6.60;3.88;;;;;;;;;;10343722;28;20316;-47
2023/09/16 13:34:46;;;;;;;4.78;3.40;;;;;;;;;;10356632;28;20588;-46
2023/09/16 13:39:47;;;;;;;7.88;3.72;;;;;;;;;;10355775;28;20026;-47
2023/09/16 13:44:47;;;;;;;5.43;3.20;;;;;;;;;;10355649;28;20050;-48
2023/09/16 13:49:48;;;;;;;4.88;3.30;;;;;;;;;;10358353;28;20488;-47
2023/09/16 13:54:49;;;;;;;4.50;3.22;;;;;;;;;;10349183;28;20143;-47
2023/09/16 13:59:49;;;;;;;7.07;3.40;;;;;;;;;;10354697;28;20023;-47
2023/09/16 14:04:50;;;;;;;6.55;3.53;;;;;;;;;;10355560;28;20025;-47
2023/09/16 14:09:51;;;;;;;4.13;3.67;;;;;;;;;;10346300;28;20034;-47
2023/09/16 14:14:52;;;;;;;6.82;3.50;;;;;;;;;;10361762;28;20022;-47
2023/09/16 14:19:53;;;;;;;3.35;3.05;;;;;;;;;;10363474;28;20029;-47
2023/09/16 14:24:53;;;;;;;5.80;3.72;;;;;;;;;;10363159;28;20029;-47
2023/09/16 14:29:54;;;;;;;6.97;3.38;;;;;;;;;;10362885;28;20033;-47
2023/09/16 14:34:55;;;;;;;3.45;3.15;;;;;;;;;;10363056;28;20021;-47
2023/09/16 14:39:55;;;;;;;6.60;3.30;;;;;;;;;;10363074;28;20026;-47
2023/09/16 14:45:00;;;;;;;3.53;3.22;;;;;;;;;;10351594;28;20406;-47
2023/09/16 14:50:01;;;;;;;4.68;3.50;;;;;;;;;;10358152;28;20041;-47
2023/09/16 14:55:07;;;;;;;3.50;3.00;;;;;;;;;;10356703;28;20026;-47
2023/09/16 15:00:08;;;;;;;3.13;2.83;;;;;;;;;;10363802;28;20126;-48
2023/09/16 15:05:11;;;;;;;3.45;3.15;;;;;;;;;;10362701;28;20026;-47
2023/09/16 15:10:12;;;;;;;3.17;2.97;;;;;;;;;;10350075;28;20084;-47
2023/09/16 15:15:12;;;;;;;3.55;3.22;;;;;;;;;;10363321;28;20076;-47
2023/09/16 15:20:13;;;;;;;3.30;2.97;;;;;;;;;;10352822;28;20026;-47
2023/09/16 15:25:13;;;;;;;5.38;3.10;;;;;;;;;;10362995;28;20420;-47
2023/09/16 15:30:14;;;;;;;5.93;3.00;;;;;;;;;;10361733;28;20072;-47
2023/09/16 15:35:15;;;;;;;6.45;3.28;;;;;;;;;;10362301;28;20014;-47
2023/09/16 15:40:16;;;;;;;4.00;3.35;;;;;;;;;;10349812;28;20026;-47
2023/09/16 15:45:17;;;;;;;3.95;2.83;;;;;;;;;;10361123;28;20042;-47
2023/09/16 15:50:18;;;;;;;3.35;3.05;;;;;;;;;;10367618;28;20482;-47
2023/09/16 15:55:19;;;;;;;2.92;2.72;;;;;;;;;;10362223;28;20018;-47
2023/09/16 16:00:19;;;;;;;3.55;3.25;;;;;;;;;;10364949;28;20025;-47
2023/09/16 16:05:21;;;;;;;3.03;2.78;;;;;;;;;;10369232;28;20038;-47
2023/09/16 16:10:24;;;;;;;4.00;2.88;;;;;;;;;;10356259;28;20134;-47
2023/09/16 16:15:26;;;;;;;3.90;2.75;;;;;;;;;;10368938;28;20033;-47
2023/09/16 16:20:27;;;;;;;3.00;2.80;;;;;;;;;;10367650;28;20021;-46
2023/09/16 16:25:30;;;;;;;3.45;2.97;;;;;;;;;;10355823;28;20022;-47
2023/09/16 16:30:30;;;;;;;4.72;3.30;;;;;;;;;;10369176;28;20280;-47
2023/09/16 16:35:31;;;;;;;5.72;3.10;;;;;;;;;;10356591;28;20029;-63
2023/09/16 16:40:32;;;;;;;3.20;2.63;;;;;;;;;;10367178;28;20080;-60
2023/09/16 16:45:33;;;;;;;2.80;2.60;;;;;;;;;;10366411;28;20042;-57
2023/09/16 16:50:34;;;;;;;2.90;2.65;;;;;;;;;;10367968;28;20057;-60
2023/09/16 16:55:35;;;;;;;4.07;2.85;;;;;;;;;;10366897;28;20377;-59
2023/09/16 17:00:36;;;;;;;2.92;2.70;;;;;;;;;;10365338;28;20454;-53
2023/09/16 17:05:37;;;;;;;3.83;2.60;;;;;;;;;;10366815;28;20030;-62
2023/09/16 17:10:37;;;;;;;2.90;2.70;;;;;;;;;;10347344;28;20026;-60
2023/09/16 17:15:40;;;;;;;3.63;2.80;;;;;;;;;;10358027;28;20022;-62
2023/09/16 17:20:41;;;;;;;2.65;2.45;;;;;;;;;;10364985;28;20650;-59
2023/09/16 17:25:42;;;;;;;3.08;2.75;;;;;;;;;;10361990;28;20157;-54
2023/09/16 17:30:42;;;;;;;3.15;2.85;;;;;;;;;;10353724;28;20104;-47
2023/09/16 17:35:44;;;;;;;3.22;2.42;;;;;;;;;;10364124;28;20097;-47
2023/09/16 17:40:44;;;;;;;2.78;2.58;;;;;;;;;;10354653;28;20148;-48
2023/09/16 17:45:45;;;;;;;2.95;2.70;;;;;;;;;;10331003;28;20122;-49
2023/09/16 17:50:46;;;;;;;2.90;2.70;;;;;;;;;;10335411;28;20034;-47
2023/09/16 17:55:46;;;;;;;3.35;3.05;;;;;;;;;;10348376;28;20418;-49
2023/09/16 18:00:48;;;;;;;7.63;3.42;;;;;;;;;;10351663;28;20045;-47
2023/09/16 18:05:48;;;;;;;5.07;3.38;;;;;;;;;;10350899;28;20406;-48
2023/09/16 18:10:49;;;;;;;6.78;3.65;;;;;;;;;;10350512;28;20033;-47
2023/09/16 18:15:50;;;;;;;10.52;4.85;;;;;;;;;;10344366;28;20026;-53
2023/09/16 18:20:50;;;;;;;8.82;4.40;;;;;;;;;;10363032;28;20490;-50
2023/09/16 18:25:51;;;;;;;16.67;4.80;;;;;;;;;;10346621;28;20034;-47
2023/09/16 18:30:52;;;;;;;10.88;4.30;;;;;;;;;;10352014;28;20044;-46
2023/09/16 18:35:53;;;;;;;11.73;4.90;;;;;;;;;;10352636;28;20037;-47
2023/09/16 18:40:53;;;;;;;11.52;5.43;;;;;;;;;;10358023;28;20385;-47
2023/09/16 18:45:54;;;;;;;20.40;5.60;;;;;;;;;;10338772;28;20277;-53
2023/09/16 18:50:55;;;;;;;19.55;5.43;;;;;;;;;;10339381;28;20125;-51
2023/09/16 18:55:55;;;;;;;11.13;5.35;;;;;;;;;;10334907;28;20034;-53
2023/09/16 19:00:56;;;;;;;12.40;5.63;;;;;;;;;;10333930;28;20019;-50
2023/09/16 19:05:57;;;;;;;11.85;5.68;;;;;;;;;;10348760;28;20093;-50
2023/09/16 19:10:57;;;;;;;8.25;4.82;;;;;;;;;;10337407;28;20092;-49
2023/09/16 19:15:58;;;;;;;10.40;5.10;;;;;;;;;;10340820;28;20022;-50
2023/09/16 19:20:58;;;;;;;12.50;4.95;;;;;;;;;;10349184;28;20026;-50
2023/09/16 19:25:59;;;;;;;13.70;5.53;;;;;;;;;;10356044;28;20130;-52
2023/09/16 19:31:02;;;;;;;11.68;5.18;;;;;;;;;;10346538;28;20034;-52
2023/09/16 19:36:03;;;;;;;13.30;5.50;;;;;;;;;;10342061;28;20026;-54
2023/09/16 19:41:04;;;;;;;15.82;5.18;;;;;;;;;;10355555;28;20034;-56
2023/09/16 19:46:06;;;;;;;15.38;5.95;;;;;;;;;;10368806;28;20050;-49
2023/09/16 19:51:06;;;;;;;11.43;5.22;;;;;;;;;;10357231;28;20037;-55
2023/09/16 19:56:07;;;;;;;21.02;5.10;;;;;;;;;;10368305;28;20045;-57
2023/09/16 20:01:08;;;;;;;31.40;5.40;;;;;;;;;;10362882;28;20027;-53
2023/09/16 20:06:08;;;;;;;18.67;4.78;;;;;;;;;;10365802;28;20390;-55
2023/09/16 20:11:09;;;;;;;10.13;5.15;;;;;;;;;;10333738;28;20031;-56
2023/09/16 20:16:10;;;;;;;10.60;4.95;;;;;;;;;;10340090;28;20030;-55
2023/09/16 20:21:10;;;;;;;11.52;4.82;;;;;;;;;;10347642;28;20023;-54
2023/09/16 20:26:12;;;;;;;13.63;4.47;;;;;;;;;;10338517;28;20026;-57
2023/09/16 20:31:12;;;;;;;13.85;5.03;;;;;;;;;;10335249;28;20541;-56
2023/09/16 20:36:13;;;;;;;7.10;4.60;;;;;;;;;;10333655;28;20030;-52
2023/09/16 20:41:13;;;;;;;11.85;4.25;;;;;;;;;;10345896;28;20029;-53
2023/09/16 20:46:14;;;;;;;7.32;4.60;;;;;;;;;;10335513;28;20045;-52
2023/09/16 20:51:15;;;;;;;12.65;4.97;;;;;;;;;;10359500;28;20033;-53
2023/09/16 20:56:15;;;;;;;10.50;4.63;;;;;;;;;;10333240;28;20033;-50
2023/09/16 21:01:16;;;;;;;15.13;4.47;;;;;;;;;;10335796;28;20382;-54
2023/09/16 21:06:16;;;;;;;7.35;4.85;;;;;;;;;;10331330;28;20387;-53
2023/09/16 21:11:17;;;;;;;4.68;4.28;;;;;;;;;;10339606;28;20029;-54
2023/09/16 21:16:17;;;;;;;8.50;4.53;;;;;;;;;;10356678;28;20025;-54
2023/09/16 21:21:18;;;;;;;7.43;4.60;;;;;;;;;;10357762;28;20072;-56
2023/09/16 21:26:19;;;;;;;6.15;4.50;;;;;;;;;;10357956;28;20027;-51
2023/09/16 21:31:19;;;;;;;7.63;4.38;;;;;;;;;;10362103;28;20381;-52
2023/09/16 21:36:20;;;;;;;6.93;4.78;;;;;;;;;;10366178;28;20041;-51
2023/09/16 21:41:21;;;;;;;7.95;4.80;;;;;;;;;;10353767;28;20490;-54
2023/09/16 21:46:21;;;;;;;5.13;4.50;;;;;;;;;;10349181;28;20502;-51
2023/09/16 21:51:22;;;;;;;6.32;4.63;;;;;;;;;;10341796;28;20034;-52
2023/09/16 21:56:22;;;;;;;6.03;4.63;;;;;;;;;;10347006;28;20069;-52
2023/09/16 22:01:24;;;;;;;8.10;5.22;;;;;;;;;;10342778;28;20027;-50
2023/09/16 22:06:25;;;;;;;6.68;4.57;;;;;;;;;;10343947;28;20054;-51
2023/09/16 22:11:26;;;;;;;8.85;5.82;;;;;;;;;;10343776;28;20034;-49
2023/09/16 22:16:26;;;;;;;7.47;4.93;;;;;;;;;;10362748;28;20022;-51
2023/09/16 22:21:27;;;;;;;6.15;5.30;;;;;;;;;;10358944;28;20351;-50
2023/09/16 22:26:27;;;;;;;7.13;5.30;;;;;;;;;;10364685;28;20382;-49
2023/09/16 22:31:28;;;;;;;8.23;5.63;;;;;;;;;;10359667;28;20033;-49
2023/09/16 22:36:29;;;;;;;9.98;5.55;;;;;;;;;;10353943;28;20038;-51
2023/09/16 22:41:29;;;;;;;6.32;4.93;;;;;;;;;;10348434;28;20133;-51
2023/09/16 22:46:30;;;;;;;7.95;5.50;;;;;;;;;;10349638;28;20045;-54
2023/09/16 22:51:31;;;;;;;7.63;5.65;;;;;;;;;;10362282;28;20026;-51
2023/09/16 22:56:34;;;;;;;6.30;5.40;;;;;;;;;;10364437;28;20037;-50
2023/09/16 23:01:35;;;;;;;7.15;5.50;;;;;;;;;;10366608;28;20469;-48
2023/09/16 23:06:35;;;;;;;9.45;5.55;;;;;;;;;;10356233;28;20099;-48
2023/09/16 23:11:36;;;;;;;8.93;5.55;;;;;;;;;;10356204;28;20029;-50
2023/09/16 23:16:36;;;;;;;8.88;5.97;;;;;;;;;;10364124;28;20036;-56
2023/09/16 23:21:38;;;;;;;15.35;6.05;;;;;;;;;;10364021;28;20089;-53
2023/09/16 23:26:38;;;;;;;11.48;6.45;;;;;;;;;;10349413;28;20034;-55
2023/09/16 23:31:39;;;;;;;7.00;6.20;;;;;;;;;;10360758;28;20382;-55
2023/09/16 23:36:41;;;;;;;9.98;7.00;;;;;;;;;;10360470;28;20386;-54
2023/09/16 23:41:41;;;;;;;7.80;6.75;;;;;;;;;;10362099;28;20469;-54
2023/09/16 23:46:42;;;;;;;8.95;6.70;;;;;;;;;;10354070;28;20057;-55
2023/09/16 23:51:42;;;;;;;11.93;7.00;;;;;;;;;;10365004;28;20079;-56
2023/09/16 23:56:43;;;;;;;12.60;7.20;;;;;;;;;;10348549;28;20030;-49
